sensor_id;sensor_type;location;lat;lon;timestamp;P1;durP1;ratioP1;P2;durP2;ratioP2
56541;SDS011;42438;53.174;6.730;2023-06-10T00:01:45;9.95;;;5.85;;
56541;SDS011;42438;53.174;6.730;2023-06-10T00:04:19;9.98;;;5.70;;
56541;SDS011;42438;53.174;6.730;2023-06-10T00:06:50;13.38;;;5.57;;
56541;SDS011;42438;53.174;6.730;2023-06-10T00:09:21;14.35;;;5.78;;
56541;SDS011;42438;53.174;6.730;2023-06-10T00:11:52;9.55;;;6.22;;
56541;SDS011;42438;53.174;6.730;2023-06-10T00:14:23;11.05;;;5.35;;
56541;SDS011;42438;53.174;6.730;2023-06-10T00:16:53;8.68;;;5.50;;
56541;SDS011;42438;53.174;6.730;2023-06-10T00:19:25;9.75;;;5.90;;
56541;SDS011;42438;53.174;6.730;2023-06-10T00:21:58;12.23;;;6.45;;
56541;SDS011;42438;53.174;6.730;2023-06-10T00:24:29;9.05;;;5.78;;
56541;SDS011;42438;53.174;6.730;2023-06-10T00:27:00;10.93;;;6.28;;
56541;SDS011;42438;53.174;6.730;2023-06-10T00:29:30;10.23;;;5.82;;
56541;SDS011;42438;53.174;6.730;2023-06-10T00:32:01;9.73;;;5.70;;
56541;SDS011;42438;53.174;6.730;2023-06-10T00:34:32;10.65;;;5.97;;
56541;SDS011;42438;53.174;6.730;2023-06-10T00:37:02;9.65;;;5.78;;
56541;SDS011;42438;53.174;6.730;2023-06-10T00:39:33;12.48;;;6.00;;
56541;SDS011;42438;53.174;6.730;2023-06-10T00:42:04;10.57;;;5.45;;
56541;SDS011;42438;53.174;6.730;2023-06-10T00:44:37;10.90;;;5.82;;
56541;SDS011;42438;53.174;6.730;2023-06-10T00:47:07;8.75;;;5.40;;
56541;SDS011;42438;53.174;6.730;2023-06-10T00:49:38;10.30;;;5.75;;
56541;SDS011;42438;53.174;6.730;2023-06-10T00:52:09;8.65;;;5.57;;
56541;SDS011;42438;53.174;6.730;2023-06-10T00:54:41;10.77;;;6.00;;
56541;SDS011;42438;53.174;6.730;2023-06-10T00:57:11;10.73;;;5.45;;
56541;SDS011;42438;53.174;6.730;2023-06-10T00:59:46;12.52;;;5.88;;
56541;SDS011;42438;53.174;6.730;2023-06-10T01:02:19;11.32;;;6.75;;
56541;SDS011;42438;53.174;6.730;2023-06-10T01:04:50;10.50;;;6.85;;
56541;SDS011;42438;53.174;6.730;2023-06-10T01:07:30;14.35;;;7.72;;
56541;SDS011;42438;53.174;6.730;2023-06-10T01:10:23;13.55;;;8.63;;
56541;SDS011;42438;53.174;6.730;2023-06-10T01:13:08;12.98;;;9.40;;
56541;SDS011;42438;53.174;6.730;2023-06-10T01:15:41;12.85;;;9.10;;
56541;SDS011;42438;53.174;6.730;2023-06-10T01:18:12;12.45;;;8.68;;
56541;SDS011;42438;53.174;6.730;2023-06-10T01:20:46;15.80;;;8.27;;
56541;SDS011;42438;53.174;6.730;2023-06-10T01:23:18;15.60;;;8.77;;
56541;SDS011;42438;53.174;6.730;2023-06-10T01:25:51;12.75;;;7.75;;
56541;SDS011;42438;53.174;6.730;2023-06-10T01:31:20;13.57;;;9.77;;
56541;SDS011;42438;53.174;6.730;2023-06-10T01:34:19;16.77;;;11.40;;
56541;SDS011;42438;53.174;6.730;2023-06-10T01:36:53;20.75;;;12.43;;
56541;SDS011;42438;53.174;6.730;2023-06-10T01:39:26;16.50;;;11.15;;
56541;SDS011;42438;53.174;6.730;2023-06-10T01:41:58;18.38;;;10.57;;
56541;SDS011;42438;53.174;6.730;2023-06-10T01:44:29;16.10;;;10.63;;
56541;SDS011;42438;53.174;6.730;2023-06-10T01:47:00;16.02;;;10.30;;
56541;SDS011;42438;53.174;6.730;2023-06-10T01:49:30;14.90;;;10.13;;
56541;SDS011;42438;53.174;6.730;2023-06-10T01:52:01;10.88;;;8.25;;
56541;SDS011;42438;53.174;6.730;2023-06-10T01:54:32;11.55;;;8.30;;
56541;SDS011;42438;53.174;6.730;2023-06-10T01:57:04;14.93;;;7.78;;
56541;SDS011;42438;53.174;6.730;2023-06-10T01:59:36;11.05;;;6.78;;
56541;SDS011;42438;53.174;6.730;2023-06-10T02:02:08;12.98;;;6.95;;
56541;SDS011;42438;53.174;6.730;2023-06-10T02:04:38;10.25;;;6.55;;
56541;SDS011;42438;53.174;6.730;2023-06-10T02:07:09;10.98;;;6.18;;
56541;SDS011;42438;53.174;6.730;2023-06-10T02:09:42;12.55;;;7.00;;
56541;SDS011;42438;53.174;6.730;2023-06-10T02:12:12;10.60;;;5.85;;
56541;SDS011;42438;53.174;6.730;2023-06-10T02:14:43;8.30;;;5.30;;
56541;SDS011;42438;53.174;6.730;2023-06-10T02:17:14;11.60;;;5.75;;
56541;SDS011;42438;53.174;6.730;2023-06-10T02:19:44;9.60;;;4.85;;
56541;SDS011;42438;53.174;6.730;2023-06-10T02:22:23;10.77;;;5.53;;
56541;SDS011;42438;53.174;6.730;2023-06-10T02:24:54;8.05;;;4.88;;
56541;SDS011;42438;53.174;6.730;2023-06-10T02:27:25;9.38;;;4.60;;
56541;SDS011;42438;53.174;6.730;2023-06-10T02:29:56;9.57;;;4.90;;
56541;SDS011;42438;53.174;6.730;2023-06-10T02:32:27;11.75;;;5.55;;
56541;SDS011;42438;53.174;6.730;2023-06-10T02:34:58;9.52;;;5.18;;
56541;SDS011;42438;53.174;6.730;2023-06-10T02:37:30;10.20;;;4.78;;
56541;SDS011;42438;53.174;6.730;2023-06-10T02:40:01;8.55;;;4.97;;
56541;SDS011;42438;53.174;6.730;2023-06-10T02:42:33;8.32;;;4.85;;
56541;SDS011;42438;53.174;6.730;2023-06-10T02:45:04;8.20;;;4.97;;
56541;SDS011;42438;53.174;6.730;2023-06-10T02:47:37;9.32;;;4.68;;
56541;SDS011;42438;53.174;6.730;2023-06-10T02:50:08;10.57;;;5.60;;
56541;SDS011;42438;53.174;6.730;2023-06-10T02:52:39;11.85;;;5.43;;
56541;SDS011;42438;53.174;6.730;2023-06-10T02:55:10;9.25;;;5.30;;
56541;SDS011;42438;53.174;6.730;2023-06-10T02:57:40;11.52;;;5.90;;
56541;SDS011;42438;53.174;6.730;2023-06-10T03:00:11;12.65;;;6.15;;
56541;SDS011;42438;53.174;6.730;2023-06-10T03:02:44;13.20;;;6.72;;
56541;SDS011;42438;53.174;6.730;2023-06-10T03:05:15;10.80;;;7.32;;
56541;SDS011;42438;53.174;6.730;2023-06-10T03:07:47;10.57;;;7.55;;
56541;SDS011;42438;53.174;6.730;2023-06-10T03:10:17;13.45;;;7.78;;
56541;SDS011;42438;53.174;6.730;2023-06-10T03:12:48;13.55;;;8.55;;
56541;SDS011;42438;53.174;6.730;2023-06-10T03:15:19;15.00;;;10.63;;
56541;SDS011;42438;53.174;6.730;2023-06-10T03:17:50;15.68;;;11.13;;
56541;SDS011;42438;53.174;6.730;2023-06-10T03:20:21;20.38;;;14.07;;
56541;SDS011;42438;53.174;6.730;2023-06-10T03:22:52;27.65;;;18.35;;
56541;SDS011;42438;53.174;6.730;2023-06-10T03:25:22;26.80;;;18.75;;
56541;SDS011;42438;53.174;6.730;2023-06-10T03:27:53;33.88;;;25.85;;
56541;SDS011;42438;53.174;6.730;2023-06-10T03:30:24;35.72;;;25.20;;
56541;SDS011;42438;53.174;6.730;2023-06-10T03:32:54;33.40;;;25.30;;
56541;SDS011;42438;53.174;6.730;2023-06-10T03:35:25;36.80;;;26.40;;
56541;SDS011;42438;53.174;6.730;2023-06-10T03:37:56;41.03;;;28.00;;
56541;SDS011;42438;53.174;6.730;2023-06-10T03:40:27;32.78;;;24.30;;
56541;SDS011;42438;53.174;6.730;2023-06-10T03:43:00;31.98;;;23.67;;
56541;SDS011;42438;53.174;6.730;2023-06-10T03:45:31;35.03;;;22.65;;
56541;SDS011;42438;53.174;6.730;2023-06-10T03:48:02;28.48;;;19.58;;
56541;SDS011;42438;53.174;6.730;2023-06-10T03:50:33;27.48;;;17.63;;
56541;SDS011;42438;53.174;6.730;2023-06-10T03:53:06;22.15;;;15.45;;
56541;SDS011;42438;53.174;6.730;2023-06-10T03:55:36;18.23;;;12.02;;
56541;SDS011;42438;53.174;6.730;2023-06-10T03:58:07;20.60;;;11.38;;
56541;SDS011;42438;53.174;6.730;2023-06-10T04:00:38;17.85;;;10.65;;
56541;SDS011;42438;53.174;6.730;2023-06-10T04:03:11;14.77;;;8.27;;
56541;SDS011;42438;53.174;6.730;2023-06-10T04:05:45;13.68;;;8.30;;
56541;SDS011;42438;53.174;6.730;2023-06-10T04:08:15;14.98;;;7.68;;
56541;SDS011;42438;53.174;6.730;2023-06-10T04:10:46;11.57;;;6.43;;
56541;SDS011;42438;53.174;6.730;2023-06-10T04:13:17;13.18;;;7.13;;
56541;SDS011;42438;53.174;6.730;2023-06-10T04:15:49;12.77;;;6.50;;
56541;SDS011;42438;53.174;6.730;2023-06-10T04:18:19;12.85;;;6.55;;
56541;SDS011;42438;53.174;6.730;2023-06-10T04:20:51;13.15;;;6.57;;
56541;SDS011;42438;53.174;6.730;2023-06-10T04:23:22;13.75;;;6.53;;
56541;SDS011;42438;53.174;6.730;2023-06-10T04:25:53;11.95;;;6.07;;
56541;SDS011;42438;53.174;6.730;2023-06-10T04:28:24;14.60;;;6.00;;
56541;SDS011;42438;53.174;6.730;2023-06-10T04:30:55;15.70;;;6.10;;
56541;SDS011;42438;53.174;6.730;2023-06-10T04:33:25;10.73;;;6.18;;
56541;SDS011;42438;53.174;6.730;2023-06-10T04:35:56;13.45;;;6.03;;
56541;SDS011;42438;53.174;6.730;2023-06-10T04:38:27;10.93;;;5.50;;
56541;SDS011;42438;53.174;6.730;2023-06-10T04:40:58;11.40;;;6.15;;
56541;SDS011;42438;53.174;6.730;2023-06-10T04:43:29;11.77;;;5.93;;
56541;SDS011;42438;53.174;6.730;2023-06-10T04:46:00;15.15;;;6.25;;
56541;SDS011;42438;53.174;6.730;2023-06-10T04:48:31;11.63;;;6.28;;
56541;SDS011;42438;53.174;6.730;2023-06-10T04:51:05;12.80;;;6.60;;
56541;SDS011;42438;53.174;6.730;2023-06-10T04:53:36;13.68;;;6.25;;
56541;SDS011;42438;53.174;6.730;2023-06-10T04:56:07;12.73;;;5.72;;
56541;SDS011;42438;53.174;6.730;2023-06-10T04:58:37;13.88;;;6.40;;
56541;SDS011;42438;53.174;6.730;2023-06-10T05:01:08;12.35;;;5.82;;
56541;SDS011;42438;53.174;6.730;2023-06-10T05:03:39;12.77;;;6.00;;
56541;SDS011;42438;53.174;6.730;2023-06-10T05:06:09;13.60;;;5.75;;
56541;SDS011;42438;53.174;6.730;2023-06-10T05:08:40;11.65;;;5.90;;
56541;SDS011;42438;53.174;6.730;2023-06-10T05:11:11;12.82;;;5.93;;
56541;SDS011;42438;53.174;6.730;2023-06-10T05:13:42;12.70;;;6.13;;
56541;SDS011;42438;53.174;6.730;2023-06-10T05:16:14;12.68;;;5.95;;
56541;SDS011;42438;53.174;6.730;2023-06-10T05:18:45;13.45;;;6.68;;
56541;SDS011;42438;53.174;6.730;2023-06-10T05:21:15;15.23;;;6.15;;
56541;SDS011;42438;53.174;6.730;2023-06-10T05:23:46;11.10;;;6.45;;
56541;SDS011;42438;53.174;6.730;2023-06-10T05:26:17;12.70;;;6.28;;
56541;SDS011;42438;53.174;6.730;2023-06-10T05:28:47;11.63;;;6.75;;
56541;SDS011;42438;53.174;6.730;2023-06-10T05:31:18;10.85;;;5.82;;
56541;SDS011;42438;53.174;6.730;2023-06-10T05:33:49;9.73;;;5.82;;
56541;SDS011;42438;53.174;6.730;2023-06-10T05:36:19;13.70;;;6.57;;
56541;SDS011;42438;53.174;6.730;2023-06-10T05:38:50;12.60;;;6.25;;
56541;SDS011;42438;53.174;6.730;2023-06-10T05:41:21;11.10;;;5.95;;
56541;SDS011;42438;53.174;6.730;2023-06-10T05:43:52;12.80;;;8.50;;
56541;SDS011;42438;53.174;6.730;2023-06-10T05:46:22;16.58;;;10.23;;
56541;SDS011;42438;53.174;6.730;2023-06-10T05:48:54;16.60;;;12.40;;
56541;SDS011;42438;53.174;6.730;2023-06-10T05:51:24;15.07;;;7.00;;
56541;SDS011;42438;53.174;6.730;2023-06-10T05:53:55;10.68;;;6.32;;
56541;SDS011;42438;53.174;6.730;2023-06-10T05:56:26;11.48;;;7.40;;
56541;SDS011;42438;53.174;6.730;2023-06-10T05:58:57;12.93;;;7.97;;
56541;SDS011;42438;53.174;6.730;2023-06-10T06:01:27;9.35;;;5.85;;
56541;SDS011;42438;53.174;6.730;2023-06-10T06:03:58;11.80;;;6.53;;
56541;SDS011;42438;53.174;6.730;2023-06-10T06:06:28;11.85;;;6.03;;
56541;SDS011;42438;53.174;6.730;2023-06-10T06:08:59;12.02;;;6.03;;
56541;SDS011;42438;53.174;6.730;2023-06-10T06:11:30;11.25;;;5.47;;
56541;SDS011;42438;53.174;6.730;2023-06-10T06:14:00;10.73;;;5.95;;
56541;SDS011;42438;53.174;6.730;2023-06-10T06:16:31;10.20;;;5.55;;
56541;SDS011;42438;53.174;6.730;2023-06-10T06:19:02;10.05;;;4.78;;
56541;SDS011;42438;53.174;6.730;2023-06-10T06:21:33;12.57;;;5.22;;
56541;SDS011;42438;53.174;6.730;2023-06-10T06:24:04;9.57;;;5.07;;
56541;SDS011;42438;53.174;6.730;2023-06-10T06:26:35;11.05;;;4.93;;
56541;SDS011;42438;53.174;6.730;2023-06-10T06:29:05;10.48;;;5.50;;
56541;SDS011;42438;53.174;6.730;2023-06-10T06:31:36;14.30;;;5.03;;
56541;SDS011;42438;53.174;6.730;2023-06-10T06:34:07;9.55;;;5.70;;
56541;SDS011;42438;53.174;6.730;2023-06-10T06:36:37;7.35;;;4.82;;
56541;SDS011;42438;53.174;6.730;2023-06-10T06:39:08;9.73;;;5.38;;
56541;SDS011;42438;53.174;6.730;2023-06-10T06:41:39;10.27;;;5.15;;
56541;SDS011;42438;53.174;6.730;2023-06-10T06:44:09;9.88;;;5.07;;
56541;SDS011;42438;53.174;6.730;2023-06-10T06:46:40;9.25;;;5.20;;
56541;SDS011;42438;53.174;6.730;2023-06-10T06:49:10;10.45;;;4.95;;
56541;SDS011;42438;53.174;6.730;2023-06-10T06:51:41;10.13;;;5.28;;
56541;SDS011;42438;53.174;6.730;2023-06-10T06:54:12;11.50;;;5.13;;
56541;SDS011;42438;53.174;6.730;2023-06-10T06:56:42;11.77;;;5.03;;
56541;SDS011;42438;53.174;6.730;2023-06-10T06:59:13;14.20;;;5.65;;
56541;SDS011;42438;53.174;6.730;2023-06-10T07:01:44;12.52;;;5.43;;
56541;SDS011;42438;53.174;6.730;2023-06-10T07:04:15;10.23;;;5.28;;
56541;SDS011;42438;53.174;6.730;2023-06-10T07:06:46;7.85;;;5.05;;
56541;SDS011;42438;53.174;6.730;2023-06-10T07:09:16;10.52;;;5.20;;
56541;SDS011;42438;53.174;6.730;2023-06-10T07:11:47;9.80;;;5.63;;
56541;SDS011;42438;53.174;6.730;2023-06-10T07:14:17;10.80;;;4.95;;
56541;SDS011;42438;53.174;6.730;2023-06-10T07:16:48;10.45;;;4.85;;
56541;SDS011;42438;53.174;6.730;2023-06-10T07:19:19;8.93;;;4.90;;
56541;SDS011;42438;53.174;6.730;2023-06-10T07:21:50;13.32;;;5.43;;
56541;SDS011;42438;53.174;6.730;2023-06-10T07:24:20;8.73;;;4.50;;
56541;SDS011;42438;53.174;6.730;2023-06-10T07:26:51;10.15;;;4.75;;
56541;SDS011;42438;53.174;6.730;2023-06-10T07:29:22;7.78;;;4.72;;
56541;SDS011;42438;53.174;6.730;2023-06-10T07:31:52;8.63;;;4.85;;
56541;SDS011;42438;53.174;6.730;2023-06-10T07:34:23;8.55;;;4.68;;
56541;SDS011;42438;53.174;6.730;2023-06-10T07:36:54;8.77;;;4.68;;
56541;SDS011;42438;53.174;6.730;2023-06-10T07:39:24;9.32;;;4.90;;
56541;SDS011;42438;53.174;6.730;2023-06-10T07:41:55;10.07;;;4.50;;
56541;SDS011;42438;53.174;6.730;2023-06-10T07:44:27;11.40;;;4.95;;
56541;SDS011;42438;53.174;6.730;2023-06-10T07:46:57;7.40;;;4.13;;
56541;SDS011;42438;53.174;6.730;2023-06-10T07:49:28;9.13;;;4.22;;
56541;SDS011;42438;53.174;6.730;2023-06-10T07:52:00;7.78;;;4.68;;
56541;SDS011;42438;53.174;6.730;2023-06-10T07:54:30;8.93;;;4.30;;
56541;SDS011;42438;53.174;6.730;2023-06-10T07:57:01;7.10;;;4.32;;
56541;SDS011;42438;53.174;6.730;2023-06-10T07:59:32;9.38;;;4.72;;
56541;SDS011;42438;53.174;6.730;2023-06-10T08:02:03;8.35;;;4.05;;
56541;SDS011;42438;53.174;6.730;2023-06-10T08:04:35;6.65;;;3.80;;
56541;SDS011;42438;53.174;6.730;2023-06-10T08:07:05;9.27;;;3.80;;
56541;SDS011;42438;53.174;6.730;2023-06-10T08:09:36;7.80;;;4.20;;
56541;SDS011;42438;53.174;6.730;2023-06-10T08:12:07;8.90;;;4.07;;
56541;SDS011;42438;53.174;6.730;2023-06-10T08:14:37;9.57;;;4.43;;
56541;SDS011;42438;53.174;6.730;2023-06-10T08:17:08;10.07;;;4.20;;
56541;SDS011;42438;53.174;6.730;2023-06-10T08:19:40;9.27;;;3.72;;
56541;SDS011;42438;53.174;6.730;2023-06-10T08:22:11;10.02;;;4.32;;
56541;SDS011;42438;53.174;6.730;2023-06-10T08:24:42;11.98;;;4.53;;
56541;SDS011;42438;53.174;6.730;2023-06-10T08:27:12;10.65;;;4.80;;
56541;SDS011;42438;53.174;6.730;2023-06-10T08:29:43;9.15;;;3.80;;
56541;SDS011;42438;53.174;6.730;2023-06-10T08:32:14;7.97;;;4.05;;
56541;SDS011;42438;53.174;6.730;2023-06-10T08:34:44;10.75;;;4.32;;
56541;SDS011;42438;53.174;6.730;2023-06-10T08:37:15;9.80;;;4.05;;
56541;SDS011;42438;53.174;6.730;2023-06-10T08:39:46;7.75;;;3.55;;
56541;SDS011;42438;53.174;6.730;2023-06-10T08:42:22;8.55;;;3.80;;
56541;SDS011;42438;53.174;6.730;2023-06-10T08:45:04;7.15;;;3.28;;
56541;SDS011;42438;53.174;6.730;2023-06-10T08:47:37;8.88;;;4.28;;
56541;SDS011;42438;53.174;6.730;2023-06-10T08:50:11;8.23;;;3.92;;
56541;SDS011;42438;53.174;6.730;2023-06-10T08:52:43;8.02;;;3.75;;
56541;SDS011;42438;53.174;6.730;2023-06-10T08:55:50;7.25;;;3.63;;
56541;SDS011;42438;53.174;6.730;2023-06-10T08:58:14;7.85;;;3.75;;
56541;SDS011;42438;53.174;6.730;2023-06-10T09:00:46;8.55;;;3.67;;
56541;SDS011;42438;53.174;6.730;2023-06-10T09:03:16;9.60;;;3.78;;
56541;SDS011;42438;53.174;6.730;2023-06-10T09:05:48;6.70;;;3.53;;
56541;SDS011;42438;53.174;6.730;2023-06-10T09:08:20;7.25;;;3.42;;
56541;SDS011;42438;53.174;6.730;2023-06-10T09:10:51;6.20;;;3.90;;
56541;SDS011;42438;53.174;6.730;2023-06-10T09:13:22;8.95;;;3.72;;
56541;SDS011;42438;53.174;6.730;2023-06-10T09:15:53;10.82;;;4.35;;
56541;SDS011;42438;53.174;6.730;2023-06-10T09:18:26;6.45;;;3.63;;
56541;SDS011;42438;53.174;6.730;2023-06-10T09:20:58;6.22;;;3.78;;
56541;SDS011;42438;53.174;6.730;2023-06-10T09:23:28;5.68;;;3.35;;
56541;SDS011;42438;53.174;6.730;2023-06-10T09:25:59;7.40;;;3.60;;
56541;SDS011;42438;53.174;6.730;2023-06-10T09:28:30;8.18;;;4.00;;
56541;SDS011;42438;53.174;6.730;2023-06-10T09:31:02;8.68;;;3.70;;
56541;SDS011;42438;53.174;6.730;2023-06-10T09:33:36;9.05;;;3.90;;
56541;SDS011;42438;53.174;6.730;2023-06-10T09:36:09;7.40;;;4.03;;
56541;SDS011;42438;53.174;6.730;2023-06-10T09:38:40;7.85;;;4.03;;
56541;SDS011;42438;53.174;6.730;2023-06-10T09:41:10;7.70;;;3.65;;
56541;SDS011;42438;53.174;6.730;2023-06-10T09:43:45;6.25;;;4.03;;
56541;SDS011;42438;53.174;6.730;2023-06-10T09:46:16;8.25;;;3.58;;
56541;SDS011;42438;53.174;6.730;2023-06-10T09:48:47;6.80;;;3.67;;
56541;SDS011;42438;53.174;6.730;2023-06-10T09:51:18;8.38;;;3.65;;
56541;SDS011;42438;53.174;6.730;2023-06-10T09:53:52;8.55;;;3.95;;
56541;SDS011;42438;53.174;6.730;2023-06-10T09:56:32;8.77;;;3.97;;
56541;SDS011;42438;53.174;6.730;2023-06-10T09:59:04;6.55;;;4.07;;
56541;SDS011;42438;53.174;6.730;2023-06-10T10:01:36;5.97;;;3.25;;
56541;SDS011;42438;53.174;6.730;2023-06-10T10:04:07;4.95;;;3.40;;
56541;SDS011;42438;53.174;6.730;2023-06-10T10:06:37;7.10;;;3.53;;
56541;SDS011;42438;53.174;6.730;2023-06-10T10:09:09;8.52;;;3.38;;
56541;SDS011;42438;53.174;6.730;2023-06-10T10:11:39;7.50;;;3.70;;
56541;SDS011;42438;53.174;6.730;2023-06-10T10:14:12;8.40;;;3.65;;
56541;SDS011;42438;53.174;6.730;2023-06-10T10:16:44;6.38;;;3.60;;
56541;SDS011;42438;53.174;6.730;2023-06-10T10:19:23;6.63;;;4.28;;
56541;SDS011;42438;53.174;6.730;2023-06-10T10:22:01;7.15;;;3.65;;
56541;SDS011;42438;53.174;6.730;2023-06-10T10:24:44;5.25;;;3.60;;
56541;SDS011;42438;53.174;6.730;2023-06-10T10:27:21;10.15;;;3.75;;
56541;SDS011;42438;53.174;6.730;2023-06-10T10:29:59;6.85;;;3.65;;
56541;SDS011;42438;53.174;6.730;2023-06-10T10:32:43;10.32;;;3.97;;
56541;SDS011;42438;53.174;6.730;2023-06-10T10:35:25;9.65;;;4.05;;
56541;SDS011;42438;53.174;6.730;2023-06-10T10:37:56;8.23;;;3.70;;
56541;SDS011;42438;53.174;6.730;2023-06-10T10:40:27;6.38;;;3.58;;
56541;SDS011;42438;53.174;6.730;2023-06-10T10:42:59;8.98;;;4.13;;
56541;SDS011;42438;53.174;6.730;2023-06-10T10:45:31;7.82;;;4.45;;
56541;SDS011;42438;53.174;6.730;2023-06-10T10:48:10;7.10;;;3.97;;
56541;SDS011;42438;53.174;6.730;2023-06-10T10:50:42;7.00;;;4.10;;
56541;SDS011;42438;53.174;6.730;2023-06-10T10:53:12;6.57;;;4.10;;
56541;SDS011;42438;53.174;6.730;2023-06-10T10:56:05;7.40;;;3.55;;
56541;SDS011;42438;53.174;6.730;2023-06-10T10:58:40;7.07;;;4.00;;
56541;SDS011;42438;53.174;6.730;2023-06-10T11:01:11;7.43;;;3.90;;
56541;SDS011;42438;53.174;6.730;2023-06-10T11:03:45;9.32;;;3.58;;
56541;SDS011;42438;53.174;6.730;2023-06-10T11:06:17;7.25;;;3.78;;
56541;SDS011;42438;53.174;6.730;2023-06-10T11:08:49;8.10;;;4.20;;
56541;SDS011;42438;53.174;6.730;2023-06-10T11:11:20;7.90;;;3.30;;
56541;SDS011;42438;53.174;6.730;2023-06-10T11:16:41;9.30;;;3.67;;
56541;SDS011;42438;53.174;6.730;2023-06-10T11:19:32;6.28;;;3.53;;
56541;SDS011;42438;53.174;6.730;2023-06-10T11:22:06;6.85;;;3.63;;
56541;SDS011;42438;53.174;6.730;2023-06-10T11:24:39;5.28;;;3.60;;
56541;SDS011;42438;53.174;6.730;2023-06-10T11:27:17;6.03;;;4.18;;
56541;SDS011;42438;53.174;6.730;2023-06-10T11:32:33;6.00;;;3.47;;
56541;SDS011;42438;53.174;6.730;2023-06-10T11:35:05;7.75;;;3.58;;
56541;SDS011;42438;53.174;6.730;2023-06-10T11:37:37;7.47;;;3.65;;
56541;SDS011;42438;53.174;6.730;2023-06-10T11:40:08;5.30;;;3.92;;
56541;SDS011;42438;53.174;6.730;2023-06-10T11:42:40;8.50;;;3.33;;
56541;SDS011;42438;53.174;6.730;2023-06-10T11:45:14;6.72;;;3.63;;
56541;SDS011;42438;53.174;6.730;2023-06-10T11:47:59;6.40;;;3.85;;
56541;SDS011;42438;53.174;6.730;2023-06-10T11:50:33;6.53;;;3.80;;
56541;SDS011;42438;53.174;6.730;2023-06-10T11:53:05;5.90;;;3.85;;
56541;SDS011;42438;53.174;6.730;2023-06-10T11:55:41;6.18;;;3.85;;
56541;SDS011;42438;53.174;6.730;2023-06-10T12:00:53;5.53;;;4.10;;
56541;SDS011;42438;53.174;6.730;2023-06-10T12:03:35;6.47;;;3.85;;
56541;SDS011;42438;53.174;6.730;2023-06-10T12:06:08;6.53;;;3.88;;
56541;SDS011;42438;53.174;6.730;2023-06-10T12:08:42;7.15;;;3.78;;
56541;SDS011;42438;53.174;6.730;2023-06-10T12:11:13;5.68;;;3.53;;
56541;SDS011;42438;53.174;6.730;2023-06-10T12:13:47;7.15;;;3.67;;
56541;SDS011;42438;53.174;6.730;2023-06-10T12:16:19;5.22;;;3.30;;
56541;SDS011;42438;53.174;6.730;2023-06-10T12:18:50;6.25;;;3.83;;
56541;SDS011;42438;53.174;6.730;2023-06-10T12:21:23;7.60;;;3.83;;
56541;SDS011;42438;53.174;6.730;2023-06-10T12:24:04;6.43;;;4.07;;
56541;SDS011;42438;53.174;6.730;2023-06-10T12:26:41;6.78;;;4.20;;
56541;SDS011;42438;53.174;6.730;2023-06-10T12:29:18;8.80;;;3.58;;
56541;SDS011;42438;53.174;6.730;2023-06-10T12:34:39;8.02;;;3.60;;
56541;SDS011;42438;53.174;6.730;2023-06-10T12:37:10;8.98;;;3.53;;
56541;SDS011;42438;53.174;6.730;2023-06-10T12:39:50;7.82;;;3.50;;
56541;SDS011;42438;53.174;6.730;2023-06-10T12:42:26;6.50;;;4.03;;
56541;SDS011;42438;53.174;6.730;2023-06-10T12:44:57;10.43;;;5.22;;
56541;SDS011;42438;53.174;6.730;2023-06-10T12:47:34;9.70;;;4.68;;
56541;SDS011;42438;53.174;6.730;2023-06-10T12:50:08;9.35;;;4.22;;
56541;SDS011;42438;53.174;6.730;2023-06-10T12:52:39;6.97;;;3.80;;
56541;SDS011;42438;53.174;6.730;2023-06-10T12:55:11;8.50;;;4.05;;
56541;SDS011;42438;53.174;6.730;2023-06-10T12:57:48;6.03;;;3.70;;
56541;SDS011;42438;53.174;6.730;2023-06-10T13:00:20;5.97;;;3.85;;
56541;SDS011;42438;53.174;6.730;2023-06-10T13:02:51;7.45;;;3.45;;
56541;SDS011;42438;53.174;6.730;2023-06-10T13:05:23;4.78;;;3.25;;
56541;SDS011;42438;53.174;6.730;2023-06-10T13:07:53;5.93;;;3.28;;
56541;SDS011;42438;53.174;6.730;2023-06-10T13:10:24;5.85;;;3.72;;
56541;SDS011;42438;53.174;6.730;2023-06-10T13:12:55;5.18;;;3.58;;
56541;SDS011;42438;53.174;6.730;2023-06-10T13:15:26;5.00;;;3.10;;
56541;SDS011;42438;53.174;6.730;2023-06-10T13:17:57;7.57;;;3.72;;
56541;SDS011;42438;53.174;6.730;2023-06-10T13:20:28;7.50;;;3.72;;
56541;SDS011;42438;53.174;6.730;2023-06-10T13:22:59;8.68;;;4.13;;
56541;SDS011;42438;53.174;6.730;2023-06-10T13:25:30;6.15;;;3.22;;
56541;SDS011;42438;53.174;6.730;2023-06-10T13:28:00;7.10;;;3.60;;
56541;SDS011;42438;53.174;6.730;2023-06-10T13:30:32;5.90;;;3.40;;
56541;SDS011;42438;53.174;6.730;2023-06-10T13:33:03;6.82;;;3.17;;
56541;SDS011;42438;53.174;6.730;2023-06-10T13:35:33;6.55;;;3.67;;
56541;SDS011;42438;53.174;6.730;2023-06-10T13:38:04;6.75;;;3.55;;
56541;SDS011;42438;53.174;6.730;2023-06-10T13:40:35;5.40;;;3.10;;
56541;SDS011;42438;53.174;6.730;2023-06-10T13:43:05;6.18;;;3.70;;
56541;SDS011;42438;53.174;6.730;2023-06-10T13:45:36;8.20;;;3.40;;
56541;SDS011;42438;53.174;6.730;2023-06-10T13:48:07;6.82;;;3.80;;
56541;SDS011;42438;53.174;6.730;2023-06-10T13:50:37;7.78;;;3.38;;
56541;SDS011;42438;53.174;6.730;2023-06-10T13:53:08;6.82;;;3.45;;
56541;SDS011;42438;53.174;6.730;2023-06-10T13:55:39;6.20;;;3.75;;
56541;SDS011;42438;53.174;6.730;2023-06-10T13:58:09;5.35;;;3.38;;
56541;SDS011;42438;53.174;6.730;2023-06-10T14:00:40;5.25;;;3.13;;
56541;SDS011;42438;53.174;6.730;2023-06-10T14:03:11;6.05;;;3.70;;
56541;SDS011;42438;53.174;6.730;2023-06-10T14:05:41;10.55;;;3.72;;
56541;SDS011;42438;53.174;6.730;2023-06-10T14:08:12;5.65;;;3.50;;
56541;SDS011;42438;53.174;6.730;2023-06-10T14:10:43;6.32;;;4.03;;
56541;SDS011;42438;53.174;6.730;2023-06-10T14:13:14;5.45;;;3.20;;
56541;SDS011;42438;53.174;6.730;2023-06-10T14:15:45;6.43;;;3.60;;
56541;SDS011;42438;53.174;6.730;2023-06-10T14:18:16;6.90;;;3.75;;
56541;SDS011;42438;53.174;6.730;2023-06-10T14:20:47;5.45;;;3.55;;
56541;SDS011;42438;53.174;6.730;2023-06-10T14:23:18;5.70;;;3.50;;
56541;SDS011;42438;53.174;6.730;2023-06-10T14:25:48;5.35;;;3.15;;
56541;SDS011;42438;53.174;6.730;2023-06-10T14:28:19;4.78;;;3.10;;
56541;SDS011;42438;53.174;6.730;2023-06-10T14:30:49;4.82;;;3.15;;
56541;SDS011;42438;53.174;6.730;2023-06-10T14:33:20;7.75;;;3.05;;
56541;SDS011;42438;53.174;6.730;2023-06-10T14:35:51;4.43;;;2.60;;
56541;SDS011;42438;53.174;6.730;2023-06-10T14:38:21;6.03;;;2.90;;
56541;SDS011;42438;53.174;6.730;2023-06-10T14:40:52;5.32;;;2.70;;
56541;SDS011;42438;53.174;6.730;2023-06-10T14:43:23;5.82;;;2.60;;
56541;SDS011;42438;53.174;6.730;2023-06-10T14:45:53;4.63;;;2.60;;
56541;SDS011;42438;53.174;6.730;2023-06-10T14:48:26;7.20;;;3.20;;
56541;SDS011;42438;53.174;6.730;2023-06-10T14:50:56;4.75;;;3.38;;
56541;SDS011;42438;53.174;6.730;2023-06-10T14:53:27;6.20;;;3.20;;
56541;SDS011;42438;53.174;6.730;2023-06-10T14:55:57;5.05;;;3.25;;
56541;SDS011;42438;53.174;6.730;2023-06-10T14:58:28;6.63;;;2.65;;
56541;SDS011;42438;53.174;6.730;2023-06-10T15:00:59;5.20;;;3.00;;
56541;SDS011;42438;53.174;6.730;2023-06-10T15:03:29;5.00;;;2.90;;
56541;SDS011;42438;53.174;6.730;2023-06-10T15:06:00;7.63;;;3.20;;
56541;SDS011;42438;53.174;6.730;2023-06-10T15:08:31;5.47;;;3.30;;
56541;SDS011;42438;53.174;6.730;2023-06-10T15:11:01;4.65;;;2.80;;
56541;SDS011;42438;53.174;6.730;2023-06-10T15:13:32;5.57;;;3.38;;
56541;SDS011;42438;53.174;6.730;2023-06-10T15:16:03;5.45;;;3.10;;
56541;SDS011;42438;53.174;6.730;2023-06-10T15:18:34;5.70;;;3.35;;
56541;SDS011;42438;53.174;6.730;2023-06-10T15:21:04;6.85;;;3.00;;
56541;SDS011;42438;53.174;6.730;2023-06-10T15:23:35;5.03;;;2.63;;